Time;durP1;ratioP1;P1;durP2;ratioP2;P2;SDS_P1;SDS_P2;PMS_P1;PMS_P2;Temp;Humidity;BMP_temperature;BMP_pressure;BME280_temperature;BME280_humidity;BME280_pressure;Samples;Min_cycle;Max_cycle;Signal;HPM_P1;HPM_P2
2021/06/17 00:00:01;;;;;;;9.57;8.67;;;;;;;;;;5044696;28;20454;-73
2021/06/17 00:02:29;;;;;;;10.77;8.77;;;;;;;;;;5052095;28;21002;-73
2021/06/17 00:04:56;;;;;;;9.63;8.63;;;;;;;;;;5050998;28;20452;-73
2021/06/17 00:07:23;;;;;;;8.67;7.87;;;;;;;;;;5048505;28;21052;-74
2021/06/17 00:09:50;;;;;;;9.23;8.33;;;;;;;;;;5049404;28;21004;-74
2021/06/17 00:12:18;;;;;;;9.00;8.23;;;;;;;;;;5052029;28;20453;-74
2021/06/17 00:14:45;;;;;;;10.20;9.20;;;;;;;;;;5047469;28;20489;-73
2021/06/17 00:17:12;;;;;;;9.63;8.70;;;;;;;;;;5049708;28;21010;-73
2021/06/17 00:19:40;;;;;;;9.27;8.37;;;;;;;;;;5051006;28;20494;-73
2021/06/17 00:22:09;;;;;;;10.90;9.10;;;;;;;;;;5050040;28;20497;-73
2021/06/17 00:24:36;;;;;;;9.90;9.10;;;;;;;;;;5051892;28;20449;-73
2021/06/17 00:27:04;;;;;;;8.77;7.93;;;;;;;;;;5048958;28;20493;-74
2021/06/17 00:29:31;;;;;;;9.80;8.30;;;;;;;;;;5053685;28;20521;-73
2021/06/17 00:31:58;;;;;;;10.30;8.10;;;;;;;;;;5049746;28;20548;-73
2021/06/17 00:34:25;;;;;;;9.47;8.00;;;;;;;;;;5053051;28;20492;-73
2021/06/17 00:36:54;;;;;;;8.63;7.93;;;;;;;;;;5050528;28;20519;-73
2021/06/17 00:39:21;;;;;;;9.00;8.20;;;;;;;;;;5052955;28;20529;-73
2021/06/17 00:41:48;;;;;;;9.33;8.63;;;;;;;;;;5048554;28;20620;-73
2021/06/17 00:44:16;;;;;;;9.90;8.83;;;;;;;;;;5051119;28;20543;-72
2021/06/17 00:46:43;;;;;;;10.30;9.27;;;;;;;;;;5050752;28;20440;-73
2021/06/17 00:49:10;;;;;;;9.87;8.90;;;;;;;;;;5050905;28;20872;-73
2021/06/17 00:51:38;;;;;;;9.17;8.17;;;;;;;;;;5049258;28;20463;-73
2021/06/17 00:54:06;;;;;;;11.10;8.77;;;;;;;;;;5052566;28;20471;-72
2021/06/17 00:56:33;;;;;;;8.90;8.10;;;;;;;;;;5049733;28;20521;-73
2021/06/17 00:59:03;;;;;;;13.47;9.13;;;;;;;;;;5051516;28;20541;-73
2021/06/17 01:01:30;;;;;;;9.60;8.90;;;;;;;;;;5051070;28;20801;-73
2021/06/17 01:03:57;;;;;;;12.07;9.67;;;;;;;;;;5050247;28;20458;-73
2021/06/17 01:06:24;;;;;;;9.17;8.33;;;;;;;;;;5051782;28;20480;-73
2021/06/17 01:08:56;;;;;;;10.10;9.07;;;;;;;;;;5047152;28;20469;-73
2021/06/17 01:11:30;;;;;;;9.23;8.53;;;;;;;;;;5051747;28;20453;-73
2021/06/17 01:13:58;;;;;;;9.47;8.67;;;;;;;;;;5048512;28;20481;-73
2021/06/17 01:16:29;;;;;;;10.03;9.13;;;;;;;;;;5051564;28;20994;-73
2021/06/17 01:18:58;;;;;;;9.97;9.10;;;;;;;;;;5048262;28;20467;-74
2021/06/17 01:21:28;;;;;;;9.67;8.87;;;;;;;;;;5051891;28;20475;-73
2021/06/17 01:24:13;;;;;;;9.53;8.30;;;;;;;;;;5048730;28;20511;-73
2021/06/17 01:26:50;;;;;;;11.60;8.87;;;;;;;;;;5051881;28;20464;-73
2021/06/17 01:29:22;;;;;;;9.80;8.90;;;;;;;;;;5047644;28;20553;-73
2021/06/17 01:31:50;;;;;;;8.97;8.07;;;;;;;;;;5050880;28;20479;-73
2021/06/17 01:34:18;;;;;;;10.70;9.60;;;;;;;;;;5045519;28;20487;-73
2021/06/17 01:36:48;;;;;;;9.23;8.33;;;;;;;;;;5050846;28;20812;-73
2021/06/17 01:39:15;;;;;;;9.77;8.87;;;;;;;;;;5048428;28;20463;-73
2021/06/17 01:41:45;;;;;;;9.37;8.57;;;;;;;;;;5053723;28;20972;-74
2021/06/17 01:44:12;;;;;;;10.13;9.10;;;;;;;;;;5050927;28;20468;-74
2021/06/17 01:46:41;;;;;;;9.27;8.37;;;;;;;;;;5054743;28;21072;-73
2021/06/17 01:49:09;;;;;;;10.73;8.40;;;;;;;;;;5047798;28;21014;-73
2021/06/17 01:51:37;;;;;;;9.43;8.43;;;;;;;;;;5049712;28;20450;-72
2021/06/17 01:54:05;;;;;;;15.53;9.20;;;;;;;;;;5047435;28;20461;-72
2021/06/17 01:56:33;;;;;;;9.77;8.97;;;;;;;;;;5053786;28;20479;-72
2021/06/17 01:59:03;;;;;;;9.87;8.97;;;;;;;;;;5047620;28;20485;-73
2021/06/17 02:01:31;;;;;;;10.30;9.30;;;;;;;;;;5049470;28;20456;-72
2021/06/17 02:04:00;;;;;;;9.67;8.77;;;;;;;;;;5048159;28;20952;-72
2021/06/17 02:06:29;;;;;;;9.77;8.37;;;;;;;;;;5049184;28;20453;-72
2021/06/17 02:08:57;;;;;;;9.80;9.00;;;;;;;;;;5049187;28;20877;-72
2021/06/17 02:11:26;;;;;;;9.43;8.43;;;;;;;;;;5042067;28;20461;-73
2021/06/17 02:13:53;;;;;;;10.77;9.10;;;;;;;;;;5049650;28;20464;-72
2021/06/17 02:16:21;;;;;;;9.13;8.27;;;;;;;;;;5047497;28;20575;-72
2021/06/17 02:18:49;;;;;;;9.20;8.40;;;;;;;;;;5046867;28;20460;-72
2021/06/17 02:21:18;;;;;;;9.33;8.50;;;;;;;;;;5045275;28;20449;-73
2021/06/17 02:23:49;;;;;;;9.47;8.60;;;;;;;;;;5050513;28;20446;-73
2021/06/17 02:26:19;;;;;;;10.07;9.17;;;;;;;;;;5046451;28;20441;-72
2021/06/17 02:28:47;;;;;;;12.10;9.10;;;;;;;;;;5047150;28;20477;-73
2021/06/17 02:31:15;;;;;;;9.67;8.87;;;;;;;;;;5046189;28;20480;-72
2021/06/17 02:33:43;;;;;;;9.63;8.73;;;;;;;;;;5049106;28;20966;-72
2021/06/17 02:36:14;;;;;;;9.90;8.97;;;;;;;;;;5047324;28;20535;-72
2021/06/17 02:38:44;;;;;;;9.93;9.03;;;;;;;;;;5048184;28;21051;-72
2021/06/17 02:41:13;;;;;;;8.90;8.10;;;;;;;;;;5047484;28;20536;-72
2021/06/17 02:43:43;;;;;;;11.20;8.93;;;;;;;;;;5047975;28;21013;-73
2021/06/17 02:46:10;;;;;;;8.93;8.03;;;;;;;;;;5046236;28;20445;-72
2021/06/17 02:48:37;;;;;;;9.27;8.40;;;;;;;;;;5047346;28;20967;-74
2021/06/17 02:51:05;;;;;;;8.90;7.97;;;;;;;;;;5045757;28;20463;-73
2021/06/17 02:53:32;;;;;;;9.10;8.30;;;;;;;;;;5053464;28;20448;-73
2021/06/17 02:56:02;;;;;;;9.10;8.17;;;;;;;;;;5047158;28;20510;-72
2021/06/17 02:58:40;;;;;;;9.50;8.60;;;;;;;;;;5047414;28;20479;-72
2021/06/17 03:01:11;;;;;;;8.23;7.63;;;;;;;;;;5048777;28;20468;-73
2021/06/17 03:03:41;;;;;;;8.70;7.83;;;;;;;;;;5043525;28;20449;-72
2021/06/17 03:06:11;;;;;;;9.13;8.23;;;;;;;;;;5049056;28;20457;-72
2021/06/17 03:08:41;;;;;;;9.23;8.33;;;;;;;;;;5046731;28;20560;-71
2021/06/17 03:11:11;;;;;;;8.93;8.10;;;;;;;;;;5047919;28;20449;-72
2021/06/17 03:13:41;;;;;;;8.27;7.50;;;;;;;;;;5045459;28;20449;-72
2021/06/17 03:16:09;;;;;;;11.00;8.50;;;;;;;;;;5048167;28;20564;-72
2021/06/17 03:18:36;;;;;;;10.10;9.03;;;;;;;;;;5045156;28;20940;-72
2021/06/17 03:21:04;;;;;;;9.43;8.43;;;;;;;;;;5052683;28;20451;-72
2021/06/17 03:23:32;;;;;;;8.93;8.17;;;;;;;;;;5047473;28;20879;-72
2021/06/17 03:26:01;;;;;;;8.63;7.83;;;;;;;;;;5050288;28;20841;-72
2021/06/17 03:28:31;;;;;;;12.93;9.43;;;;;;;;;;5049345;28;20490;-73
2021/06/17 03:30:59;;;;;;;12.00;9.87;;;;;;;;;;5052099;28;21006;-73
2021/06/17 03:33:27;;;;;;;9.00;8.30;;;;;;;;;;5048059;28;20449;-73
2021/06/17 03:35:54;;;;;;;14.23;8.40;;;;;;;;;;5054800;28;20899;-72
2021/06/17 03:38:23;;;;;;;8.50;7.80;;;;;;;;;;5047222;28;20449;-73
2021/06/17 03:40:51;;;;;;;9.10;8.30;;;;;;;;;;5050891;28;20452;-72
2021/06/17 03:43:20;;;;;;;12.37;7.90;;;;;;;;;;5049709;28;20462;-72
2021/06/17 03:45:49;;;;;;;9.83;8.83;;;;;;;;;;5053121;28;20488;-72
2021/06/17 03:48:18;;;;;;;9.67;8.83;;;;;;;;;;5047881;28;20541;-72
2021/06/17 03:50:47;;;;;;;9.40;8.70;;;;;;;;;;5050630;28;20473;-72
2021/06/17 03:53:15;;;;;;;9.90;9.10;;;;;;;;;;5049996;28;20507;-72
2021/06/17 03:55:43;;;;;;;10.00;8.90;;;;;;;;;;5048462;28;20536;-72
2021/06/17 03:58:10;;;;;;;10.40;8.47;;;;;;;;;;5054241;28;20460;-73
2021/06/17 04:00:38;;;;;;;9.33;8.53;;;;;;;;;;5050238;28;20555;-71
2021/06/17 04:03:08;;;;;;;9.53;8.63;;;;;;;;;;5051793;28;20456;-73
2021/06/17 04:05:36;;;;;;;9.30;8.50;;;;;;;;;;5048963;28;20484;-74
2021/06/17 04:08:03;;;;;;;8.80;8.00;;;;;;;;;;5052308;28;20832;-74
2021/06/17 04:10:31;;;;;;;9.27;8.57;;;19.70;60.70;;;;;;5048330;28;20483;-74
2021/06/17 04:12:59;;;;;;;8.90;8.03;;;19.80;66.70;;;;;;5051973;28;20473;-74
2021/06/17 04:15:28;;;;;;;9.53;8.03;;;20.40;65.50;;;;;;5048278;28;21046;-73
2021/06/17 04:17:59;;;;;;;7.90;7.17;;;21.00;64.40;;;;;;5051275;28;20455;-73
2021/06/17 04:20:30;;;;;;;8.50;7.70;;;21.60;62.80;;;;;;5047719;28;20464;-74
2021/06/17 04:22:58;;;;;;;8.20;7.30;;;22.10;61.70;;;;;;5051420;28;20468;-73
2021/06/17 04:25:25;;;;;;;7.90;7.30;;;22.50;61.10;;;;;;5049328;28;20551;-73
2021/06/17 04:27:57;;;;;;;8.83;7.97;;;22.90;60.80;;;;;;5051468;28;20545;-75
2021/06/17 04:30:26;;;;;;;12.53;7.67;;;23.20;60.20;;;;;;5050037;28;21041;-74
2021/06/17 04:32:54;;;;;;;7.90;7.30;;;23.70;59.50;;;;;;5053330;28;20453;-75
2021/06/17 04:35:23;;;;;;;8.33;7.50;;;23.80;59.10;;;;;;5050266;28;20991;-74
2021/06/17 04:37:52;;;;;;;7.90;7.20;;;24.00;58.90;;;;;;5056950;28;20476;-74
2021/06/17 04:40:21;;;;;;;10.87;8.17;;;24.30;58.40;;;;;;5046689;28;20990;-74
2021/06/17 04:42:49;;;;;;;9.87;7.40;;;24.50;57.70;;;;;;5052163;28;20543;-74
2021/06/17 04:45:16;;;;;;;8.40;7.10;;;24.40;57.20;;;;;;5044791;28;20457;-74
2021/06/17 04:47:49;;;;;;;8.80;7.60;;;24.70;57.40;;;;;;5050530;28;20537;-74
2021/06/17 04:50:17;;;;;;;7.73;7.10;;;24.30;56.90;;;;;;5050853;28;20981;-74
2021/06/17 04:53:14;;;;;;;9.30;7.17;;;24.20;56.70;;;;;;5052681;28;20481;-73
2021/06/17 04:55:47;;;;;;;6.53;5.87;;;24.30;56.80;;;;;;5043770;28;20453;-74
2021/06/17 04:58:14;;;;;;;7.97;7.27;;;24.30;56.50;;;;;;5049867;28;20522;-74
2021/06/17 05:00:41;;;;;;;8.00;7.13;;;24.20;56.50;;;;;;5050422;28;20461;-73
2021/06/17 05:03:08;;;;;;;8.27;7.30;;;24.00;56.10;;;;;;5047474;28;20570;-74
2021/06/17 05:05:34;;;;;;;7.80;7.10;;;24.00;56.50;;;;;;5051172;28;20579;-72
2021/06/17 05:10:51;;;;;;;61.43;16.47;;;24.20;56.70;;;;;;5051910;28;20578;-73
2021/06/17 05:13:19;;;;;;;8.80;7.40;;;24.10;56.50;;;;;;5051066;28;20506;-73
2021/06/17 05:15:47;;;;;;;14.37;7.23;;;24.50;57.00;;;;;;5051337;28;20564;-74
2021/06/17 05:18:14;;;;;;;9.00;6.80;;;24.80;56.00;;;;;;5047625;28;20491;-74
2021/06/17 05:20:41;;;;;;;9.13;7.63;;;24.80;56.20;;;;;;5050459;28;20461;-74
2021/06/17 05:23:08;;;;;;;9.10;6.57;;;25.00;56.10;;;;;;5047787;28;20795;-74
2021/06/17 05:25:35;;;;;;;8.13;7.37;;;24.90;56.00;;;;;;5053314;28;20873;-73
2021/06/17 05:28:03;;;;;;;10.17;7.50;;;25.20;55.90;;;;;;5049907;28;20453;-74
2021/06/17 05:30:30;;;;;;;8.90;6.87;;;25.50;56.30;;;;;;5052883;28;21083;-75
2021/06/17 05:32:57;;;;;;;7.53;6.83;;;26.00;55.70;;;;;;5046969;28;20453;-74
2021/06/17 05:35:24;;;;;;;7.50;6.80;;;26.50;55.10;;;;;;5050490;28;20507;-73
2021/06/17 05:37:51;;;;;;;8.13;7.33;;;26.30;54.80;;;;;;5046648;28;20455;-73
2021/06/17 05:40:19;;;;;;;24.77;9.27;;;26.60;54.50;;;;;;5052468;28;20450;-73
2021/06/17 05:42:46;;;;;;;14.53;7.77;;;27.10;54.20;;;;;;5046545;28;20625;-74
2021/06/17 05:45:15;;;;;;;7.40;6.80;;;27.00;54.10;;;;;;5051494;28;20458;-73
2021/06/17 05:47:42;;;;;;;7.50;6.33;;;27.30;53.50;;;;;;5049310;28;21150;-75
2021/06/17 05:50:10;;;;;;;6.97;6.27;;;27.10;53.80;;;;;;5054064;28;20470;-75
2021/06/17 05:52:37;;;;;;;7.03;6.43;;;27.40;53.30;;;;;;5051436;28;20503;-74
2021/06/17 05:55:04;;;;;;;10.03;7.40;;;27.70;53.30;;;;;;5047910;28;20948;-74
2021/06/17 05:57:32;;;;;;;10.27;7.40;;;27.80;53.00;;;;;;5051535;28;20449;-74
2021/06/17 05:59:59;;;;;;;15.87;8.60;;;27.80;52.70;;;;;;5047499;28;20464;-74
2021/06/17 06:02:27;;;;;;;7.97;7.17;;;27.80;53.00;;;;;;5050421;28;20478;-73
2021/06/17 06:04:54;;;;;;;8.77;7.33;;;28.10;52.70;;;;;;5048906;28;20469;-74
2021/06/17 06:07:21;;;;;;;10.20;7.20;;;27.80;52.40;;;;;;5053285;28;20801;-73
2021/06/17 06:09:48;;;;;;;7.83;6.80;;;27.90;53.10;;;;;;5045731;28;20491;-74
2021/06/17 06:12:15;;;;;;;10.83;6.57;;;28.10;52.70;;;;;;5050682;28;20788;-74
2021/06/17 06:14:42;;;;;;;12.73;7.63;;;28.30;52.90;;;;;;5048365;28;20493;-74
2021/06/17 06:17:09;;;;;;;11.53;7.13;;;28.40;52.80;;;;;;5050523;28;20611;-74
2021/06/17 06:19:37;;;;;;;6.33;5.83;;;28.60;52.60;;;;;;5048527;28;20741;-74
2021/06/17 06:22:05;;;;;;;6.67;6.00;;;28.30;51.90;;;;;;5051725;28;20564;-74
2021/06/17 06:24:33;;;;;;;7.00;6.23;;;28.30;51.50;;;;;;5051536;28;20516;-75
2021/06/17 06:27:00;;;;;;;9.93;7.43;;;28.10;51.40;;;;;;5050023;28;20483;-74
2021/06/17 06:29:28;;;;;;;7.43;6.67;;;28.10;51.50;;;;;;5046838;28;20856;-73
2021/06/17 06:31:55;;;;;;;6.90;5.80;;;27.90;51.80;;;;;;5051919;28;20513;-74
2021/06/17 06:34:22;;;;;;;7.90;6.47;;;26.90;52.70;;;;;;5050495;28;20454;-75
2021/06/17 06:36:51;;;;;;;7.40;6.20;;;26.30;53.20;;;;;;5053941;28;20524;-73
2021/06/17 06:39:18;;;;;;;7.90;7.10;;;25.90;54.00;;;;;;5050640;28;20874;-73
2021/06/17 06:41:46;;;;;;;7.87;7.00;;;25.70;53.80;;;;;;5048969;28;20484;-73
2021/06/17 06:44:13;;;;;;;7.73;6.77;;;25.60;53.90;;;;;;5050010;28;20519;-75
2021/06/17 06:46:41;;;;;;;6.80;6.30;;;25.60;54.30;;;;;;5048900;28;20460;-73
2021/06/17 06:49:08;;;;;;;7.10;6.40;;;25.40;54.40;;;;;;5051649;28;20503;-73
2021/06/17 06:51:38;;;;;;;8.27;6.67;;;25.10;54.40;;;;;;5043608;28;20524;-73
2021/06/17 06:54:07;;;;;;;8.50;7.73;;;24.90;54.70;;;;;;5053944;28;20526;-74
2021/06/17 06:56:33;;;;;;;7.23;6.33;;;24.90;55.10;;;;;;5049208;28;20527;-73
2021/06/17 06:59:00;;;;;;;8.10;6.80;;;25.00;55.00;;;;;;5050611;28;20498;-72
2021/06/17 07:01:27;;;;;;;7.53;6.83;;;25.00;55.50;;;;;;5055613;28;20553;-74
2021/06/17 07:03:54;;;;;;;7.20;6.10;;;25.10;55.50;;;;;;5056260;28;20957;-74
2021/06/17 07:06:21;;;;;;;7.73;7.03;;;25.20;55.10;;;;;;5054216;28;20505;-73
2021/06/17 07:08:48;;;;;;;7.80;6.90;;;25.30;55.00;;;;;;5054531;28;20459;-74
2021/06/17 07:11:16;;;;;;;7.90;7.20;;;25.40;55.00;;;;;;5053629;28;20471;-72
2021/06/17 07:13:43;;;;;;;7.33;6.73;;;25.40;55.40;;;;;;5056150;28;20540;-74
2021/06/17 07:16:10;;;;;;;6.97;6.47;;;25.40;54.70;;;;;;5056871;28;20484;-74
2021/06/17 07:18:37;;;;;;;7.27;6.67;;;25.40;54.70;;;;;;5054544;28;20974;-74
2021/06/17 07:21:04;;;;;;;8.17;6.90;;;25.60;54.80;;;;;;5053811;28;20965;-73
2021/06/17 07:23:32;;;;;;;11.27;6.70;;;25.70;54.60;;;;;;5052476;28;20555;-73
2021/06/17 07:25:59;;;;;;;10.37;7.47;;;26.00;54.70;;;;;;5063330;28;20455;-74
2021/06/17 07:28:28;;;;;;;8.13;7.30;;;26.20;54.60;;;;;;5055877;28;20771;-74
2021/06/17 07:30:54;;;;;;;8.43;7.40;;;26.20;54.00;;;;;;5050583;28;20547;-73
2021/06/17 07:33:21;;;;;;;6.97;6.37;;;26.30;54.70;;;;;;5048385;28;20983;-74
2021/06/17 07:35:48;;;;;;;9.30;7.40;;;26.50;53.80;;;;;;5053575;28;20905;-74
2021/06/17 07:38:15;;;;;;;9.23;6.87;;;26.50;54.40;;;;;;5050797;28;20465;-73
2021/06/17 07:40:42;;;;;;;7.93;7.00;;;26.70;54.60;;;;;;5049899;28;20484;-74
2021/06/17 07:43:10;;;;;;;7.33;6.63;;;26.70;54.10;;;;;;5051045;28;20963;-74
2021/06/17 07:45:38;;;;;;;7.30;6.57;;;26.70;54.40;;;;;;5053908;28;20454;-75
2021/06/17 07:48:10;;;;;;;9.83;6.50;;;27.00;54.40;;;;;;5051212;28;20480;-74
2021/06/17 07:50:37;;;;;;;7.47;6.30;;;27.20;53.80;;;;;;5053874;28;20465;-74
2021/06/17 07:53:04;;;;;;;6.40;5.90;;;27.40;54.00;;;;;;5051544;28;20492;-74
2021/06/17 07:55:31;;;;;;;10.27;6.43;;;27.20;53.00;;;;;;5053200;28;20550;-74
2021/06/17 07:57:58;;;;;;;6.50;6.00;;;27.20;53.00;;;;;;5049701;28;20499;-74
2021/06/17 08:00:29;;;;;;;5.60;4.80;;;27.20;52.90;;;;;;5053407;28;20456;-73
2021/06/17 08:02:57;;;;;;;5.70;5.20;;;27.20;51.90;;;;;;5053134;28;21016;-74
2021/06/17 08:05:24;;;;;;;6.23;5.00;;;27.20;51.70;;;;;;5050970;28;20449;-73
2021/06/17 08:07:52;;;;;;;5.10;4.70;;;27.60;51.50;;;;;;5052896;28;20449;-74
2021/06/17 08:10:19;;;;;;;4.83;4.43;;;27.80;50.80;;;;;;5048608;28;20473;-73
2021/06/17 08:12:46;;;;;;;5.37;4.93;;;27.90;50.30;;;;;;5052058;28;20442;-74
2021/06/17 08:15:13;;;;;;;5.23;4.83;;;28.00;50.50;;;;;;5048414;28;20453;-74
2021/06/17 08:17:40;;;;;;;5.40;4.50;;;28.00;50.00;;;;;;5052197;28;20458;-75
2021/06/17 08:20:10;;;;;;;5.30;4.80;;;27.80;49.80;;;;;;5046750;28;20458;-74
2021/06/17 08:22:37;;;;;;;5.73;5.23;;;28.10;50.20;;;;;;5051917;28;20525;-74
2021/06/17 08:25:05;;;;;;;4.90;4.50;;;28.10;49.60;;;;;;5048588;28;20473;-74
2021/06/17 08:27:32;;;;;;;6.33;4.90;;;28.30;49.90;;;;;;5052816;28;20774;-74
2021/06/17 08:29:59;;;;;;;6.63;6.03;;;28.20;49.90;;;;;;5046393;28;20535;-74
2021/06/17 08:32:26;;;;;;;5.10;4.70;;;28.40;49.70;;;;;;5052448;28;20446;-73
2021/06/17 08:34:53;;;;;;;5.23;4.73;;;28.70;49.70;;;;;;5048893;28;20511;-75
2021/06/17 08:37:21;;;;;;;7.70;4.90;;;28.90;49.90;;;;;;5051141;28;20445;-74
2021/06/17 08:39:49;;;;;;;7.50;4.40;;;28.90;49.40;;;;;;5051105;28;20516;-74
2021/06/17 08:42:16;;;;;;;4.73;4.43;;;29.00;49.40;;;;;;5051761;28;20442;-75
2021/06/17 08:44:43;;;;;;;4.77;4.37;;;29.10;49.60;;;;;;5049007;28;20464;-73
2021/06/17 08:47:10;;;;;;;5.97;4.67;;;29.20;48.80;;;;;;5050342;28;20512;-75
2021/06/17 08:49:37;;;;;;;6.00;4.80;;;29.20;49.40;;;;;;5050819;28;21074;-74
2021/06/17 08:52:04;;;;;;;4.70;4.30;;;29.40;49.20;;;;;;5049062;28;20454;-74
2021/06/17 08:54:33;;;;;;;4.80;4.40;;;29.50;48.80;;;;;;5051839;28;20470;-74
2021/06/17 08:57:00;;;;;;;5.23;4.80;;;29.70;48.30;;;;;;5049508;28;20469;-74
2021/06/17 08:59:34;;;;;;;5.10;4.60;;;29.70;48.50;;;;;;5056045;28;20543;-74
2021/06/17 09:02:01;;;;;;;5.43;4.93;;;29.70;48.30;;;;;;5049011;28;20446;-74
2021/06/17 09:04:30;;;;;;;5.57;5.17;;;29.60;48.70;;;;;;5052464;28;20461;-75
2021/06/17 09:07:03;;;;;;;5.73;5.13;;;29.50;48.60;;;;;;5049069;28;20489;-74
2021/06/17 09:09:38;;;;;;;6.90;5.33;;;29.60;49.10;;;;;;5056061;28;20477;-75
2021/06/17 09:12:06;;;;;;;6.57;5.73;;;29.70;49.20;;;;;;5049097;28;21025;-75
2021/06/17 09:14:33;;;;;;;6.13;5.57;;;30.00;49.40;;;;;;5056291;28;20461;-74
2021/06/17 09:17:03;;;;;;;5.70;5.30;;;30.10;49.40;;;;;;5047821;28;20508;-72
2021/06/17 09:19:42;;;;;;;5.90;5.30;;;30.10;49.90;;;;;;5050998;28;20473;-74
2021/06/17 09:22:10;;;;;;;5.60;5.10;;;30.10;49.30;;;;;;5049641;28;20461;-73
2021/06/17 09:24:42;;;;;;;6.70;5.07;;;30.00;48.90;;;;;;5047083;28;20462;-74
2021/06/17 09:27:24;;;;;;;6.00;5.40;;;29.90;49.10;;;;;;5049974;28;20446;-74
2021/06/17 09:29:53;;;;;;;5.90;5.27;;;30.10;49.30;;;;;;5050104;28;20461;-74
2021/06/17 09:32:22;;;;;;;5.50;5.00;;;30.30;49.40;;;;;;5048237;28;21094;-73
2021/06/17 09:34:49;;;;;;;7.53;5.13;;;30.20;49.40;;;;;;5050661;28;20511;-74
2021/06/17 09:37:35;;;;;;;6.10;5.70;;;30.10;48.80;;;;;;5048932;28;20481;-74
2021/06/17 09:40:23;;;;;;;6.93;4.97;;;30.10;48.60;;;;;;5047059;28;20457;-74
2021/06/17 09:42:50;;;;;;;5.27;4.87;;;29.90;48.60;;;;;;5051759;28;20453;-74
2021/06/17 09:45:19;;;;;;;5.63;5.13;;;29.70;48.30;;;;;;5051878;28;20482;-74
2021/06/17 09:47:46;;;;;;;5.83;5.33;;;30.00;48.60;;;;;;5048070;28;20495;-75
2021/06/17 09:50:27;;;;;;;5.43;4.97;;;30.00;48.60;;;;;;5051648;28;20453;-73
2021/06/17 09:52:55;;;;;;;5.70;5.30;;;30.10;48.60;;;;;;5046920;28;20465;-73
2021/06/17 09:55:42;;;;;;;6.33;5.83;;;30.10;48.00;;;;;;5053931;28;20480;-74
2021/06/17 09:58:12;;;;;;;6.73;4.90;;;30.30;48.80;;;;;;5048605;28;20449;-74
2021/06/17 10:00:55;;;;;;;5.50;5.00;;;30.40;48.00;;;;;;5052151;28;20876;-73
2021/06/17 10:03:22;;;;;;;6.10;5.53;;;30.40;48.50;;;;;;5051229;28;20560;-73
2021/06/17 10:05:49;;;;;;;5.60;5.00;;;30.70;48.00;;;;;;5059734;28;20456;-74
2021/06/17 10:08:16;;;;;;;10.03;5.40;;;30.60;47.70;;;;;;5049689;28;20449;-72
2021/06/17 10:10:44;;;;;;;5.43;5.03;;;30.70;47.90;;;;;;5053494;28;20449;-75
2021/06/17 10:13:11;;;;;;;5.30;4.90;;;30.90;47.60;;;;;;5046068;28;20525;-74
2021/06/17 10:15:38;;;;;;;6.50;5.10;;;31.20;47.60;;;;;;5049476;28;20489;-75
2021/06/17 10:18:05;;;;;;;5.93;4.93;;;31.30;47.50;;;;;;5049080;28;20469;-73
2021/06/17 10:20:32;;;;;;;5.33;4.63;;;31.40;47.30;;;;;;5047021;28;20449;-75
2021/06/17 10:22:59;;;;;;;5.70;5.13;;;31.30;46.90;;;;;;5050040;28;20460;-74
2021/06/17 10:25:29;;;;;;;6.20;4.77;;;31.50;47.10;;;;;;5047640;28;20460;-75
2021/06/17 10:27:58;;;;;;;5.23;4.90;;;31.00;47.00;;;;;;5053042;28;20445;-75
2021/06/17 10:30:46;;;;;;;5.20;4.80;;;31.40;47.00;;;;;;5047136;28;20460;-73
2021/06/17 10:33:29;;;;;;;6.63;4.37;;;31.60;47.10;;;;;;5046562;28;20445;-75
2021/06/17 10:36:22;;;;;;;5.70;5.30;;;31.80;46.70;;;;;;5047349;28;20503;-74
2021/06/17 10:39:14;;;;;;;5.70;5.20;;;32.00;46.80;;;;;;5048267;28;20442;-73
2021/06/17 10:42:13;;;;;;;6.30;4.87;;;32.10;46.90;;;;;;5048727;28;20462;-75
2021/06/17 10:44:49;;;;;;;5.37;4.83;;;32.20;47.30;;;;;;5044366;28;20453;-74
2021/06/17 10:47:52;;;;;;;5.50;5.00;;;32.30;47.40;;;;;;5049215;28;20477;-76
2021/06/17 10:50:20;;;;;;;9.53;5.10;;;32.40;46.60;;;;;;5048541;28;21036;-75
2021/06/17 10:52:51;;;;;;;7.07;5.07;;;32.30;46.80;;;;;;5049686;28;20498;-73
2021/06/17 10:55:19;;;;;;;5.13;4.73;;;32.50;46.90;;;;;;5047687;28;20905;-74
2021/06/17 10:57:51;;;;;;;4.97;4.57;;;32.50;46.00;;;;;;5049797;28;20472;-74
2021/06/17 11:00:50;;;;;;;6.07;5.07;;;32.10;46.50;;;;;;5040297;28;21486;-74
2021/06/17 11:03:37;;;;;;;10.70;5.00;;;31.70;46.50;;;;;;5048427;28;20893;-74
2021/06/17 11:06:04;;;;;;;9.27;5.03;;;31.70;46.90;;;;;;5044108;28;20482;-75
2021/06/17 11:08:31;;;;;;;5.60;5.07;;;31.70;46.60;;;;;;5045703;28;20552;-74
2021/06/17 11:11:00;;;;;;;6.27;5.37;;;31.80;46.80;;;;;;5047020;28;20460;-74
2021/06/17 11:13:29;;;;;;;6.70;5.53;;;31.90;46.80;;;;;;5048540;28;20968;-74
2021/06/17 11:15:59;;;;;;;5.30;4.90;;;32.10;47.50;;;;;;5047935;28;20556;-73
2021/06/17 11:19:02;;;;;;;6.10;5.30;;;32.20;46.50;;;;;;5045900;28;20442;-74
2021/06/17 11:21:45;;;;;;;5.00;4.63;;;32.10;46.40;;;;;;5047869;28;20449;-73
2021/06/17 11:24:34;;;;;;;5.20;4.70;;;32.20;46.50;;;;;;5053311;28;20477;-73
2021/06/17 11:27:01;;;;;;;5.20;4.80;;;32.10;46.20;;;;;;5047077;28;20943;-73
2021/06/17 11:29:57;;;;;;;5.50;5.00;;;32.30;46.70;;;;;;5048508;28;21047;-74
2021/06/17 11:32:30;;;;;;;6.33;4.73;;;32.10;46.10;;;;;;5043278;28;20476;-75
2021/06/17 11:34:57;;;;;;;5.80;5.17;;;31.90;45.90;;;;;;5046692;28;20438;-73
2021/06/17 11:37:30;;;;;;;5.20;4.80;;;32.20;46.30;;;;;;5042223;28;20499;-74
2021/06/17 11:39:57;;;;;;;8.63;5.20;;;32.50;46.30;;;;;;5062929;28;20449;-74
2021/06/17 11:42:23;;;;;;;6.00;5.47;;;32.30;45.90;;;;;;5048347;28;20450;-73
2021/06/17 11:45:01;;;;;;;5.10;4.70;;;32.60;46.10;;;;;;5051517;28;20932;-72
2021/06/17 11:47:29;;;;;;;4.83;4.43;;;32.80;46.10;;;;;;5048911;28;20480;-75
2021/06/17 11:50:05;;;;;;;5.10;4.60;;;32.70;45.80;;;;;;5055476;28;20452;-73
2021/06/17 11:52:39;;;;;;;5.20;4.70;;;32.80;46.10;;;;;;5051299;28;20560;-75
2021/06/17 11:55:08;;;;;;;5.30;4.90;;;32.50;45.50;;;;;;5053741;28;20525;-74
2021/06/17 11:57:38;;;;;;;6.30;5.00;;;32.60;46.10;;;;;;5051166;28;20441;-74
2021/06/17 12:00:07;;;;;;;5.70;5.30;;;32.70;45.90;;;;;;5054140;28;20519;-74
2021/06/17 12:02:35;;;;;;;5.20;4.80;;;33.00;46.50;;;;;;5048020;28;20454;-75
2021/06/17 12:05:04;;;;;;;5.83;4.43;;;33.40;46.10;;;;;;5053817;28;20465;-74
2021/06/17 12:07:32;;;;;;;7.80;5.13;;;33.40;45.30;;;;;;5051691;28;20450;-73
2021/06/17 12:10:11;;;;;;;5.30;4.90;;;32.80;45.80;;;;;;5056724;28;20788;-74
2021/06/17 12:12:40;;;;;;;4.83;4.13;;;32.70;44.90;;;;;;5051888;28;20519;-75
2021/06/17 12:15:09;;;;;;;5.50;4.90;;;32.70;44.90;;;;;;5052514;28;20461;-73
2021/06/17 12:17:41;;;;;;;4.67;4.27;;;32.90;44.90;;;;;;5054144;28;20472;-74
2021/06/17 12:20:15;;;;;;;5.23;4.73;;;33.00;44.80;;;;;;5049467;28;20532;-74
2021/06/17 12:22:44;;;;;;;5.10;4.70;;;33.10;44.70;;;;;;5054839;28;20450;-75
2021/06/17 12:25:11;;;;;;;5.13;4.77;;;33.40;44.90;;;;;;5052939;28;20468;-74
2021/06/17 12:27:42;;;;;;;7.00;5.10;;;33.60;45.40;;;;;;5053554;28;20488;-73
2021/06/17 12:30:26;;;;;;;6.17;5.53;;;33.80;45.60;;;;;;5047350;28;20453;-76
2021/06/17 12:32:56;;;;;;;5.20;4.60;;;33.80;45.50;;;;;;5048925;28;20465;-74
2021/06/17 12:35:24;;;;;;;5.23;4.53;;;33.60;45.20;;;;;;5050486;28;20454;-74
2021/06/17 12:37:52;;;;;;;5.97;5.47;;;33.70;45.40;;;;;;5054452;28;20454;-74
2021/06/17 12:40:34;;;;;;;5.47;5.00;;;33.60;44.70;;;;;;5049847;28;20449;-74
2021/06/17 12:43:18;;;;;;;7.30;4.83;;;33.60;45.00;;;;;;5056510;28;20449;-73
2021/06/17 12:45:47;;;;;;;4.67;4.37;;;33.80;44.90;;;;;;5048541;28;20488;-74
2021/06/17 12:54:01;;;;;;;4.80;4.50;;;33.70;43.90;;;;;;5047716;28;20492;-74
2021/06/17 12:56:30;;;;;;;5.80;5.30;;;33.60;43.80;;;;;;5050879;28;20532;-75
2021/06/17 12:58:57;;;;;;;5.07;4.73;;;33.60;44.40;;;;;;5053093;28;20508;-74
2021/06/17 13:01:24;;;;;;;5.97;5.57;;;33.80;44.70;;;;;;5054579;28;20532;-74
2021/06/17 13:03:53;;;;;;;6.07;5.50;;;34.30;44.80;;;;;;5050025;28;20900;-74
2021/06/17 13:06:36;;;;;;;7.27;5.40;;;34.60;44.80;;;;;;5050156;28;20476;-73
2021/06/17 13:09:04;;;;;;;5.07;4.67;;;34.60;44.40;;;;;;5049398;28;20499;-74
2021/06/17 13:11:32;;;;;;;4.50;4.17;;;34.30;44.30;;;;;;5051385;28;20438;-74
2021/06/17 13:14:06;;;;;;;5.27;4.77;;;34.10;43.90;;;;;;5052598;28;20776;-73
2021/06/17 13:16:35;;;;;;;8.30;5.40;;;34.10;43.90;;;;;;5048519;28;20476;-74
2021/06/17 13:19:08;;;;;;;4.90;4.60;;;34.20;44.00;;;;;;5053979;28;20446;-74
2021/06/17 13:21:34;;;;;;;5.67;4.57;;;33.80;43.50;;;;;;5050034;28;20510;-74
2021/06/17 13:24:02;;;;;;;5.07;4.67;;;34.00;44.10;;;;;;5051695;28;20531;-75
2021/06/17 13:26:30;;;;;;;5.80;5.17;;;34.10;43.60;;;;;;5049135;28;20878;-74
2021/06/17 13:28:59;;;;;;;5.37;4.70;;;34.00;44.20;;;;;;5051193;28;20442;-74
2021/06/17 13:31:29;;;;;;;5.10;4.70;;;33.90;44.00;;;;;;5042636;28;20541;-73
2021/06/17 13:33:56;;;;;;;5.97;5.40;;;34.10;43.70;;;;;;5051365;28;20996;-74
2021/06/17 13:36:24;;;;;;;5.57;4.47;;;34.10;44.30;;;;;;5049705;28;20445;-74
2021/06/17 13:38:52;;;;;;;4.93;4.53;;;34.10;43.40;;;;;;5050641;28;20550;-75